sensor_id;sensor_type;location;lat;lon;timestamp;temperature;humidity
4354;DHT22;11018;51.258;6.806;2023-11-19T00:01:36;10.70;99.90
4354;DHT22;11018;51.258;6.806;2023-11-19T00:04:02;10.80;99.90
4354;DHT22;11018;51.258;6.806;2023-11-19T00:06:30;10.80;99.90
4354;DHT22;11018;51.258;6.806;2023-11-19T00:08:55;10.80;99.90
4354;DHT22;11018;51.258;6.806;2023-11-19T00:11:21;10.90;99.90
4354;DHT22;11018;51.258;6.806;2023-11-19T00:13:46;10.90;99.90
4354;DHT22;11018;51.258;6.806;2023-11-19T00:16:12;11.10;99.90
4354;DHT22;11018;51.258;6.806;2023-11-19T00:18:38;11.00;99.90
4354;DHT22;11018;51.258;6.806;2023-11-19T00:21:03;11.00;99.90
4354;DHT22;11018;51.258;6.806;2023-11-19T00:23:29;11.10;99.90
4354;DHT22;11018;51.258;6.806;2023-11-19T00:25:54;11.10;99.90
4354;DHT22;11018;51.258;6.806;2023-11-19T00:28:20;11.40;99.90
4354;DHT22;11018;51.258;6.806;2023-11-19T00:30:45;11.40;99.90
4354;DHT22;11018;51.258;6.806;2023-11-19T00:33:11;11.40;99.90
4354;DHT22;11018;51.258;6.806;2023-11-19T00:35:36;11.40;99.90
4354;DHT22;11018;51.258;6.806;2023-11-19T00:38:02;11.40;99.90
4354;DHT22;11018;51.258;6.806;2023-11-19T00:40:29;11.50;99.90
4354;DHT22;11018;51.258;6.806;2023-11-19T00:42:54;11.50;99.90
4354;DHT22;11018;51.258;6.806;2023-11-19T00:45:20;11.50;99.90
4354;DHT22;11018;51.258;6.806;2023-11-19T00:47:46;11.50;99.90
4354;DHT22;11018;51.258;6.806;2023-11-19T00:50:11;11.50;99.90
4354;DHT22;11018;51.258;6.806;2023-11-19T00:52:38;11.50;99.90
4354;DHT22;11018;51.258;6.806;2023-11-19T00:55:04;11.50;99.90
4354;DHT22;11018;51.258;6.806;2023-11-19T00:57:31;11.60;99.90
4354;DHT22;11018;51.258;6.806;2023-11-19T00:59:58;11.60;99.90
4354;DHT22;11018;51.258;6.806;2023-11-19T01:02:24;11.80;99.90
4354;DHT22;11018;51.258;6.806;2023-11-19T01:04:50;11.90;99.90
4354;DHT22;11018;51.258;6.806;2023-11-19T01:07:16;12.00;99.90
4354;DHT22;11018;51.258;6.806;2023-11-19T01:09:42;11.90;99.90
4354;DHT22;11018;51.258;6.806;2023-11-19T01:12:08;12.00;99.90
4354;DHT22;11018;51.258;6.806;2023-11-19T01:14:34;12.20;99.90
4354;DHT22;11018;51.258;6.806;2023-11-19T01:17:01;12.20;99.90
4354;DHT22;11018;51.258;6.806;2023-11-19T01:19:26;12.30;99.90
4354;DHT22;11018;51.258;6.806;2023-11-19T01:21:53;12.40;99.90
4354;DHT22;11018;51.258;6.806;2023-11-19T01:24:19;12.50;99.90
4354;DHT22;11018;51.258;6.806;2023-11-19T01:26:45;12.60;99.90
4354;DHT22;11018;51.258;6.806;2023-11-19T01:29:12;12.70;99.90
4354;DHT22;11018;51.258;6.806;2023-11-19T01:31:45;12.70;99.90
4354;DHT22;11018;51.258;6.806;2023-11-19T01:34:11;12.80;99.90
4354;DHT22;11018;51.258;6.806;2023-11-19T01:36:37;12.80;99.90
4354;DHT22;11018;51.258;6.806;2023-11-19T01:39:02;12.90;99.90
4354;DHT22;11018;51.258;6.806;2023-11-19T01:41:33;13.00;99.90
4354;DHT22;11018;51.258;6.806;2023-11-19T01:43:59;13.00;99.90
4354;DHT22;11018;51.258;6.806;2023-11-19T01:46:25;13.00;99.90
4354;DHT22;11018;51.258;6.806;2023-11-19T01:48:51;13.10;99.90
4354;DHT22;11018;51.258;6.806;2023-11-19T01:51:17;13.10;99.90
4354;DHT22;11018;51.258;6.806;2023-11-19T01:53:43;13.20;99.90
4354;DHT22;11018;51.258;6.806;2023-11-19T01:56:10;13.10;99.90
4354;DHT22;11018;51.258;6.806;2023-11-19T01:58:37;13.20;99.90
4354;DHT22;11018;51.258;6.806;2023-11-19T02:01:05;13.20;99.90
4354;DHT22;11018;51.258;6.806;2023-11-19T02:03:31;13.20;99.90
4354;DHT22;11018;51.258;6.806;2023-11-19T02:05:59;13.20;99.90
4354;DHT22;11018;51.258;6.806;2023-11-19T02:08:25;13.20;99.90
4354;DHT22;11018;51.258;6.806;2023-11-19T02:10:51;13.30;99.90
4354;DHT22;11018;51.258;6.806;2023-11-19T02:13:20;13.20;99.90
4354;DHT22;11018;51.258;6.806;2023-11-19T02:15:45;13.20;99.90
4354;DHT22;11018;51.258;6.806;2023-11-19T02:18:21;13.20;99.90
4354;DHT22;11018;51.258;6.806;2023-11-19T02:20:48;13.20;99.90
4354;DHT22;11018;51.258;6.806;2023-11-19T02:23:14;13.20;99.90
4354;DHT22;11018;51.258;6.806;2023-11-19T02:25:40;13.10;99.90
4354;DHT22;11018;51.258;6.806;2023-11-19T02:28:07;13.10;99.90
4354;DHT22;11018;51.258;6.806;2023-11-19T02:30:33;13.10;99.90
4354;DHT22;11018;51.258;6.806;2023-11-19T02:32:59;13.00;99.90
4354;DHT22;11018;51.258;6.806;2023-11-19T02:35:28;13.00;99.90
4354;DHT22;11018;51.258;6.806;2023-11-19T02:37:58;13.00;99.90
4354;DHT22;11018;51.258;6.806;2023-11-19T02:40:24;13.00;99.90
4354;DHT22;11018;51.258;6.806;2023-11-19T02:42:51;13.10;99.90
4354;DHT22;11018;51.258;6.806;2023-11-19T02:45:17;13.00;99.90
4354;DHT22;11018;51.258;6.806;2023-11-19T02:47:43;13.00;99.90
4354;DHT22;11018;51.258;6.806;2023-11-19T02:50:13;13.00;99.90
4354;DHT22;11018;51.258;6.806;2023-11-19T02:52:44;13.10;99.90
4354;DHT22;11018;51.258;6.806;2023-11-19T02:55:11;13.10;99.90
4354;DHT22;11018;51.258;6.806;2023-11-19T02:57:40;13.20;99.90
4354;DHT22;11018;51.258;6.806;2023-11-19T03:02:40;13.20;99.90
4354;DHT22;11018;51.258;6.806;2023-11-19T03:05:12;13.30;99.90
4354;DHT22;11018;51.258;6.806;2023-11-19T03:07:43;13.20;99.90
4354;DHT22;11018;51.258;6.806;2023-11-19T03:10:10;13.10;99.90
4354;DHT22;11018;51.258;6.806;2023-11-19T03:12:39;13.10;99.90
4354;DHT22;11018;51.258;6.806;2023-11-19T03:15:06;13.00;99.90
4354;DHT22;11018;51.258;6.806;2023-11-19T03:17:32;13.00;99.90
4354;DHT22;11018;51.258;6.806;2023-11-19T03:19:58;13.00;99.90
4354;DHT22;11018;51.258;6.806;2023-11-19T03:22:23;13.00;99.90
4354;DHT22;11018;51.258;6.806;2023-11-19T03:24:51;13.00;99.90
4354;DHT22;11018;51.258;6.806;2023-11-19T03:27:16;13.20;99.90
4354;DHT22;11018;51.258;6.806;2023-11-19T03:29:42;13.20;99.90
4354;DHT22;11018;51.258;6.806;2023-11-19T03:32:08;13.30;99.90
4354;DHT22;11018;51.258;6.806;2023-11-19T03:34:34;13.40;99.90
4354;DHT22;11018;51.258;6.806;2023-11-19T03:36:59;13.40;99.10
4354;DHT22;11018;51.258;6.806;2023-11-19T03:39:25;13.40;98.00
4354;DHT22;11018;51.258;6.806;2023-11-19T03:41:52;13.40;97.30
4354;DHT22;11018;51.258;6.806;2023-11-19T03:44:17;13.50;96.00
4354;DHT22;11018;51.258;6.806;2023-11-19T03:46:44;13.50;95.50
4354;DHT22;11018;51.258;6.806;2023-11-19T03:49:10;13.50;94.40
4354;DHT22;11018;51.258;6.806;2023-11-19T03:51:35;13.50;93.40
4354;DHT22;11018;51.258;6.806;2023-11-19T03:54:01;13.50;91.70
4354;DHT22;11018;51.258;6.806;2023-11-19T03:56:26;13.50;90.50
4354;DHT22;11018;51.258;6.806;2023-11-19T03:58:52;13.50;89.10
4354;DHT22;11018;51.258;6.806;2023-11-19T04:01:18;13.50;88.40
4354;DHT22;11018;51.258;6.806;2023-11-19T04:03:44;13.50;87.40
4354;DHT22;11018;51.258;6.806;2023-11-19T04:06:09;13.50;86.30
4354;DHT22;11018;51.258;6.806;2023-11-19T04:08:35;13.50;85.20
4354;DHT22;11018;51.258;6.806;2023-11-19T04:11:02;13.50;84.40
4354;DHT22;11018;51.258;6.806;2023-11-19T04:13:28;13.50;83.50
4354;DHT22;11018;51.258;6.806;2023-11-19T04:15:53;13.40;83.90
4354;DHT22;11018;51.258;6.806;2023-11-19T04:18:19;13.30;84.40
4354;DHT22;11018;51.258;6.806;2023-11-19T04:20:45;13.20;85.10
4354;DHT22;11018;51.258;6.806;2023-11-19T04:23:10;13.10;85.60
4354;DHT22;11018;51.258;6.806;2023-11-19T04:25:36;13.00;87.70
4354;DHT22;11018;51.258;6.806;2023-11-19T04:28:02;13.00;87.30
4354;DHT22;11018;51.258;6.806;2023-11-19T04:30:28;13.00;87.10
4354;DHT22;11018;51.258;6.806;2023-11-19T04:32:54;13.00;86.00
4354;DHT22;11018;51.258;6.806;2023-11-19T04:35:19;13.00;86.00
4354;DHT22;11018;51.258;6.806;2023-11-19T04:37:45;13.00;85.80
4354;DHT22;11018;51.258;6.806;2023-11-19T04:40:11;13.00;85.80
4354;DHT22;11018;51.258;6.806;2023-11-19T04:42:37;13.10;85.40
4354;DHT22;11018;51.258;6.806;2023-11-19T04:45:06;13.10;84.10
4354;DHT22;11018;51.258;6.806;2023-11-19T04:47:35;13.00;85.30
4354;DHT22;11018;51.258;6.806;2023-11-19T04:50:00;12.90;87.70
4354;DHT22;11018;51.258;6.806;2023-11-19T04:52:26;12.90;86.60
4354;DHT22;11018;51.258;6.806;2023-11-19T04:54:52;13.00;86.40
4354;DHT22;11018;51.258;6.806;2023-11-19T04:57:17;13.00;85.60
4354;DHT22;11018;51.258;6.806;2023-11-19T04:59:43;12.90;86.30
4354;DHT22;11018;51.258;6.806;2023-11-19T05:02:09;12.90;87.70
4354;DHT22;11018;51.258;6.806;2023-11-19T05:04:35;13.00;86.30
4354;DHT22;11018;51.258;6.806;2023-11-19T05:07:00;13.00;86.50
4354;DHT22;11018;51.258;6.806;2023-11-19T05:09:26;12.90;86.50
4354;DHT22;11018;51.258;6.806;2023-11-19T05:11:51;12.80;87.80
4354;DHT22;11018;51.258;6.806;2023-11-19T05:14:17;12.80;87.40
4354;DHT22;11018;51.258;6.806;2023-11-19T05:16:45;12.80;85.80
4354;DHT22;11018;51.258;6.806;2023-11-19T05:19:11;12.70;87.00
4354;DHT22;11018;51.258;6.806;2023-11-19T05:21:36;12.70;85.20
4354;DHT22;11018;51.258;6.806;2023-11-19T05:24:02;12.70;83.30
4354;DHT22;11018;51.258;6.806;2023-11-19T05:26:31;12.70;83.50
4354;DHT22;11018;51.258;6.806;2023-11-19T05:28:57;12.70;83.10
4354;DHT22;11018;51.258;6.806;2023-11-19T05:31:22;12.70;80.60
4354;DHT22;11018;51.258;6.806;2023-11-19T05:33:48;12.70;81.40
4354;DHT22;11018;51.258;6.806;2023-11-19T05:36:13;12.60;81.00
4354;DHT22;11018;51.258;6.806;2023-11-19T05:38:39;12.60;81.20
4354;DHT22;11018;51.258;6.806;2023-11-19T05:41:05;12.60;80.20
4354;DHT22;11018;51.258;6.806;2023-11-19T05:43:32;12.60;80.70
4354;DHT22;11018;51.258;6.806;2023-11-19T05:45:57;12.60;80.30
4354;DHT22;11018;51.258;6.806;2023-11-19T05:48:24;12.70;77.50
4354;DHT22;11018;51.258;6.806;2023-11-19T05:50:50;12.80;76.00
4354;DHT22;11018;51.258;6.806;2023-11-19T05:53:16;12.80;76.20
4354;DHT22;11018;51.258;6.806;2023-11-19T05:55:41;12.80;75.50
4354;DHT22;11018;51.258;6.806;2023-11-19T05:58:26;12.80;74.80
4354;DHT22;11018;51.258;6.806;2023-11-19T06:00:53;12.80;73.50
4354;DHT22;11018;51.258;6.806;2023-11-19T06:03:19;12.90;71.10
4354;DHT22;11018;51.258;6.806;2023-11-19T06:05:47;12.90;71.00
4354;DHT22;11018;51.258;6.806;2023-11-19T06:08:13;12.80;71.50
4354;DHT22;11018;51.258;6.806;2023-11-19T06:10:39;12.80;71.50
4354;DHT22;11018;51.258;6.806;2023-11-19T06:13:05;12.60;73.60
4354;DHT22;11018;51.258;6.806;2023-11-19T06:15:32;12.50;75.00
4354;DHT22;11018;51.258;6.806;2023-11-19T06:17:58;12.60;74.50
4354;DHT22;11018;51.258;6.806;2023-11-19T06:20:26;12.50;75.40
4354;DHT22;11018;51.258;6.806;2023-11-19T06:22:54;12.40;76.50
4354;DHT22;11018;51.258;6.806;2023-11-19T06:25:20;12.40;76.30
4354;DHT22;11018;51.258;6.806;2023-11-19T06:27:45;12.30;75.60
4354;DHT22;11018;51.258;6.806;2023-11-19T06:30:11;12.40;74.30
4354;DHT22;11018;51.258;6.806;2023-11-19T06:32:37;12.40;74.80
4354;DHT22;11018;51.258;6.806;2023-11-19T06:35:03;12.30;74.90
4354;DHT22;11018;51.258;6.806;2023-11-19T06:37:30;12.20;75.40
4354;DHT22;11018;51.258;6.806;2023-11-19T06:39:55;12.30;74.60
4354;DHT22;11018;51.258;6.806;2023-11-19T06:42:21;12.20;74.80
4354;DHT22;11018;51.258;6.806;2023-11-19T06:44:46;12.10;73.10
4354;DHT22;11018;51.258;6.806;2023-11-19T06:47:12;12.10;71.90
4354;DHT22;11018;51.258;6.806;2023-11-19T06:49:37;12.10;71.60
4354;DHT22;11018;51.258;6.806;2023-11-19T06:52:03;12.10;70.70
4354;DHT22;11018;51.258;6.806;2023-11-19T06:54:30;12.10;70.50
4354;DHT22;11018;51.258;6.806;2023-11-19T06:56:56;12.10;69.80
4354;DHT22;11018;51.258;6.806;2023-11-19T06:59:23;12.10;70.50
4354;DHT22;11018;51.258;6.806;2023-11-19T07:01:48;12.00;70.70
4354;DHT22;11018;51.258;6.806;2023-11-19T07:04:14;11.90;71.60
4354;DHT22;11018;51.258;6.806;2023-11-19T07:06:39;11.90;72.60
4354;DHT22;11018;51.258;6.806;2023-11-19T07:09:08;11.80;73.00
4354;DHT22;11018;51.258;6.806;2023-11-19T07:11:43;11.90;72.90
4354;DHT22;11018;51.258;6.806;2023-11-19T07:14:11;11.80;72.30
4354;DHT22;11018;51.258;6.806;2023-11-19T07:16:38;11.90;71.70
4354;DHT22;11018;51.258;6.806;2023-11-19T07:19:04;11.90;70.60
4354;DHT22;11018;51.258;6.806;2023-11-19T07:21:31;11.90;70.60
4354;DHT22;11018;51.258;6.806;2023-11-19T07:23:58;11.80;71.40
4354;DHT22;11018;51.258;6.806;2023-11-19T07:26:24;11.80;70.80
4354;DHT22;11018;51.258;6.806;2023-11-19T07:28:50;11.80;71.00
4354;DHT22;11018;51.258;6.806;2023-11-19T07:31:16;11.80;71.90
4354;DHT22;11018;51.258;6.806;2023-11-19T07:33:43;11.80;71.30
4354;DHT22;11018;51.258;6.806;2023-11-19T07:36:10;11.80;70.40
4354;DHT22;11018;51.258;6.806;2023-11-19T07:38:36;11.90;70.00
4354;DHT22;11018;51.258;6.806;2023-11-19T07:41:01;12.00;67.30
4354;DHT22;11018;51.258;6.806;2023-11-19T07:43:27;12.00;66.40
4354;DHT22;11018;51.258;6.806;2023-11-19T07:45:53;12.10;65.20
4354;DHT22;11018;51.258;6.806;2023-11-19T07:48:18;12.10;64.40
4354;DHT22;11018;51.258;6.806;2023-11-19T07:50:49;12.20;63.10
4354;DHT22;11018;51.258;6.806;2023-11-19T07:53:18;12.20;62.40
4354;DHT22;11018;51.258;6.806;2023-11-19T07:55:44;12.20;63.10
4354;DHT22;11018;51.258;6.806;2023-11-19T07:58:10;12.20;63.30
4354;DHT22;11018;51.258;6.806;2023-11-19T08:00:38;12.30;62.20
4354;DHT22;11018;51.258;6.806;2023-11-19T08:03:04;12.30;63.20
4354;DHT22;11018;51.258;6.806;2023-11-19T08:05:31;12.20;64.20
4354;DHT22;11018;51.258;6.806;2023-11-19T08:07:57;12.20;65.00
4354;DHT22;11018;51.258;6.806;2023-11-19T08:10:23;12.10;66.10
4354;DHT22;11018;51.258;6.806;2023-11-19T08:12:49;12.20;64.80
4354;DHT22;11018;51.258;6.806;2023-11-19T08:15:15;12.20;65.50
4354;DHT22;11018;51.258;6.806;2023-11-19T08:17:41;12.30;65.00
4354;DHT22;11018;51.258;6.806;2023-11-19T08:20:08;12.40;65.00
4354;DHT22;11018;51.258;6.806;2023-11-19T08:22:36;12.50;63.90
4354;DHT22;11018;51.258;6.806;2023-11-19T08:25:04;12.70;61.50
4354;DHT22;11018;51.258;6.806;2023-11-19T08:27:30;12.90;61.10
4354;DHT22;11018;51.258;6.806;2023-11-19T08:29:56;13.00;60.10
4354;DHT22;11018;51.258;6.806;2023-11-19T08:32:27;13.00;58.90
4354;DHT22;11018;51.258;6.806;2023-11-19T08:34:53;13.10;58.80
4354;DHT22;11018;51.258;6.806;2023-11-19T08:37:19;13.10;58.00
4354;DHT22;11018;51.258;6.806;2023-11-19T08:39:50;13.10;57.00
4354;DHT22;11018;51.258;6.806;2023-11-19T08:42:16;13.10;58.60
4354;DHT22;11018;51.258;6.806;2023-11-19T08:44:42;13.00;58.50
4354;DHT22;11018;51.258;6.806;2023-11-19T08:47:09;13.00;58.80
4354;DHT22;11018;51.258;6.806;2023-11-19T08:49:36;13.20;57.10
4354;DHT22;11018;51.258;6.806;2023-11-19T08:52:01;13.30;55.80
4354;DHT22;11018;51.258;6.806;2023-11-19T08:54:27;13.50;54.80
4354;DHT22;11018;51.258;6.806;2023-11-19T08:56:53;13.50;53.50
4354;DHT22;11018;51.258;6.806;2023-11-19T08:59:21;13.30;55.20
4354;DHT22;11018;51.258;6.806;2023-11-19T09:01:47;13.20;56.10
4354;DHT22;11018;51.258;6.806;2023-11-19T09:04:12;13.10;56.90
4354;DHT22;11018;51.258;6.806;2023-11-19T09:06:39;13.10;55.80
4354;DHT22;11018;51.258;6.806;2023-11-19T09:09:05;13.20;56.40
4354;DHT22;11018;51.258;6.806;2023-11-19T09:11:31;13.20;54.50
4354;DHT22;11018;51.258;6.806;2023-11-19T09:13:57;13.30;54.60
4354;DHT22;11018;51.258;6.806;2023-11-19T09:16:23;13.40;54.10
4354;DHT22;11018;51.258;6.806;2023-11-19T09:18:49;13.50;54.00
4354;DHT22;11018;51.258;6.806;2023-11-19T09:21:15;13.50;52.80
4354;DHT22;11018;51.258;6.806;2023-11-19T09:23:41;13.60;53.30
4354;DHT22;11018;51.258;6.806;2023-11-19T09:26:08;13.80;50.80
4354;DHT22;11018;51.258;6.806;2023-11-19T09:28:35;13.90;49.20
4354;DHT22;11018;51.258;6.806;2023-11-19T09:31:01;13.90;49.60
4354;DHT22;11018;51.258;6.806;2023-11-19T09:33:29;13.80;50.00
4354;DHT22;11018;51.258;6.806;2023-11-19T09:35:55;13.80;49.40
4354;DHT22;11018;51.258;6.806;2023-11-19T09:38:20;13.80;49.70
4354;DHT22;11018;51.258;6.806;2023-11-19T09:40:46;13.90;49.30
4354;DHT22;11018;51.258;6.806;2023-11-19T09:43:14;13.90;48.60
4354;DHT22;11018;51.258;6.806;2023-11-19T09:45:59;13.90;48.50
4354;DHT22;11018;51.258;6.806;2023-11-19T09:48:32;14.00;48.20
4354;DHT22;11018;51.258;6.806;2023-11-19T09:50:58;14.10;48.20
4354;DHT22;11018;51.258;6.806;2023-11-19T09:53:24;14.20;47.00
4354;DHT22;11018;51.258;6.806;2023-11-19T09:55:50;14.30;46.10
4354;DHT22;11018;51.258;6.806;2023-11-19T09:58:17;14.40;46.00
4354;DHT22;11018;51.258;6.806;2023-11-19T10:00:42;14.60;45.30
4354;DHT22;11018;51.258;6.806;2023-11-19T10:03:11;14.70;44.60
4354;DHT22;11018;51.258;6.806;2023-11-19T10:05:37;14.80;44.10
4354;DHT22;11018;51.258;6.806;2023-11-19T10:08:04;14.70;43.90
4354;DHT22;11018;51.258;6.806;2023-11-19T10:10:30;14.60;43.30
4354;DHT22;11018;51.258;6.806;2023-11-19T10:12:56;14.60;43.30
4354;DHT22;11018;51.258;6.806;2023-11-19T10:15:22;14.70;44.20
4354;DHT22;11018;51.258;6.806;2023-11-19T10:17:50;14.70;42.80
4354;DHT22;11018;51.258;6.806;2023-11-19T10:20:15;14.90;41.90
4354;DHT22;11018;51.258;6.806;2023-11-19T10:22:41;15.00;41.70
4354;DHT22;11018;51.258;6.806;2023-11-19T10:27:49;15.30;40.10
4354;DHT22;11018;51.258;6.806;2023-11-19T10:30:25;15.50;39.10
4354;DHT22;11018;51.258;6.806;2023-11-19T10:33:07;15.40;38.90
4354;DHT22;11018;51.258;6.806;2023-11-19T10:35:35;15.20;40.10
4354;DHT22;11018;51.258;6.806;2023-11-19T10:38:14;15.20;39.70
4354;DHT22;11018;51.258;6.806;2023-11-19T10:40:43;15.20;38.90
4354;DHT22;11018;51.258;6.806;2023-11-19T10:43:09;15.20;39.10
4354;DHT22;11018;51.258;6.806;2023-11-19T10:45:38;15.20;38.90
4354;DHT22;11018;51.258;6.806;2023-11-19T10:48:04;15.20;39.30
4354;DHT22;11018;51.258;6.806;2023-11-19T10:50:34;15.20;39.40
4354;DHT22;11018;51.258;6.806;2023-11-19T10:53:01;15.20;38.80
4354;DHT22;11018;51.258;6.806;2023-11-19T10:55:29;15.10;39.10
4354;DHT22;11018;51.258;6.806;2023-11-19T10:57:59;15.00;39.50
4354;DHT22;11018;51.258;6.806;2023-11-19T11:00:28;14.90;39.90
4354;DHT22;11018;51.258;6.806;2023-11-19T11:02:59;14.80;40.10
4354;DHT22;11018;51.258;6.806;2023-11-19T11:05:26;14.70;40.80
4354;DHT22;11018;51.258;6.806;2023-11-19T11:07:52;14.80;40.50
4354;DHT22;11018;51.258;6.806;2023-11-19T11:10:21;14.90;40.30
4354;DHT22;11018;51.258;6.806;2023-11-19T11:12:52;15.10;38.60
4354;DHT22;11018;51.258;6.806;2023-11-19T11:15:23;15.20;38.10
4354;DHT22;11018;51.258;6.806;2023-11-19T11:17:50;15.20;38.40
4354;DHT22;11018;51.258;6.806;2023-11-19T11:20:19;15.20;38.50
4354;DHT22;11018;51.258;6.806;2023-11-19T11:22:56;15.20;37.80
4354;DHT22;11018;51.258;6.806;2023-11-19T11:25:50;15.30;37.10
4354;DHT22;11018;51.258;6.806;2023-11-19T11:31:31;15.30;37.00
4354;DHT22;11018;51.258;6.806;2023-11-19T11:39:40;15.50;36.60
4354;DHT22;11018;51.258;6.806;2023-11-19T11:50:22;15.10;38.30
4354;DHT22;11018;51.258;6.806;2023-11-19T11:55:27;15.00;38.40
4354;DHT22;11018;51.258;6.806;2023-11-19T11:57:56;15.00;38.80
4354;DHT22;11018;51.258;6.806;2023-11-19T12:00:30;14.80;39.50
4354;DHT22;11018;51.258;6.806;2023-11-19T12:02:58;14.80;40.00
4354;DHT22;11018;51.258;6.806;2023-11-19T12:05:24;14.90;38.90
4354;DHT22;11018;51.258;6.806;2023-11-19T12:07:58;15.00;38.70
4354;DHT22;11018;51.258;6.806;2023-11-19T12:10:25;15.10;38.70
4354;DHT22;11018;51.258;6.806;2023-11-19T12:12:58;15.20;37.50
4354;DHT22;11018;51.258;6.806;2023-11-19T12:15:25;15.20;36.60
4354;DHT22;11018;51.258;6.806;2023-11-19T12:17:56;15.30;36.50
4354;DHT22;11018;51.258;6.806;2023-11-19T12:20:23;15.30;36.30
4354;DHT22;11018;51.258;6.806;2023-11-19T12:22:49;15.50;35.60
4354;DHT22;11018;51.258;6.806;2023-11-19T12:25:17;15.60;35.50
4354;DHT22;11018;51.258;6.806;2023-11-19T12:27:52;15.60;36.10
4354;DHT22;11018;51.258;6.806;2023-11-19T12:30:27;15.40;35.40
4354;DHT22;11018;51.258;6.806;2023-11-19T12:32:54;15.30;36.20
4354;DHT22;11018;51.258;6.806;2023-11-19T12:35:20;15.30;36.60
4354;DHT22;11018;51.258;6.806;2023-11-19T12:37:47;15.40;36.70
4354;DHT22;11018;51.258;6.806;2023-11-19T12:40:25;15.40;36.50
4354;DHT22;11018;51.258;6.806;2023-11-19T12:42:54;15.20;37.10
4354;DHT22;11018;51.258;6.806;2023-11-19T12:45:20;15.00;37.90
4354;DHT22;11018;51.258;6.806;2023-11-19T12:47:47;14.80;39.40
4354;DHT22;11018;51.258;6.806;2023-11-19T12:50:15;14.80;40.30
4354;DHT22;11018;51.258;6.806;2023-11-19T12:52:43;14.70;41.40
4354;DHT22;11018;51.258;6.806;2023-11-19T12:55:28;14.70;41.50
4354;DHT22;11018;51.258;6.806;2023-11-19T12:57:54;14.90;41.30
4354;DHT22;11018;51.258;6.806;2023-11-19T13:00:25;15.00;40.40
4354;DHT22;11018;51.258;6.806;2023-11-19T13:02:53;15.20;39.80
4354;DHT22;11018;51.258;6.806;2023-11-19T13:05:25;15.40;39.20
4354;DHT22;11018;51.258;6.806;2023-11-19T13:07:58;15.50;39.10
4354;DHT22;11018;51.258;6.806;2023-11-19T13:10:24;15.50;39.50
4354;DHT22;11018;51.258;6.806;2023-11-19T13:13:19;15.50;38.70
4354;DHT22;11018;51.258;6.806;2023-11-19T13:15:45;15.20;39.70
4354;DHT22;11018;51.258;6.806;2023-11-19T13:18:11;15.10;39.90
4354;DHT22;11018;51.258;6.806;2023-11-19T13:20:37;14.90;40.70
4354;DHT22;11018;51.258;6.806;2023-11-19T13:23:05;14.80;41.20
4354;DHT22;11018;51.258;6.806;2023-11-19T13:25:31;14.80;41.90
4354;DHT22;11018;51.258;6.806;2023-11-19T13:27:58;15.00;41.50
4354;DHT22;11018;51.258;6.806;2023-11-19T13:30:24;15.10;40.60
4354;DHT22;11018;51.258;6.806;2023-11-19T13:32:50;15.10;40.30
4354;DHT22;11018;51.258;6.806;2023-11-19T13:35:17;15.00;40.00
4354;DHT22;11018;51.258;6.806;2023-11-19T13:37:43;15.10;40.70
4354;DHT22;11018;51.258;6.806;2023-11-19T13:40:09;15.20;40.20
4354;DHT22;11018;51.258;6.806;2023-11-19T13:42:38;15.20;40.10
4354;DHT22;11018;51.258;6.806;2023-11-19T13:45:14;15.30;39.20
4354;DHT22;11018;51.258;6.806;2023-11-19T13:47:45;15.20;39.50
4354;DHT22;11018;51.258;6.806;2023-11-19T13:50:14;15.00;40.20
4354;DHT22;11018;51.258;6.806;2023-11-19T13:52:42;14.90;40.40
4354;DHT22;11018;51.258;6.806;2023-11-19T13:55:09;14.80;41.00
4354;DHT22;11018;51.258;6.806;2023-11-19T13:57:36;14.70;41.50
4354;DHT22;11018;51.258;6.806;2023-11-19T14:00:06;14.60;42.10
4354;DHT22;11018;51.258;6.806;2023-11-19T14:02:35;14.50;42.30
4354;DHT22;11018;51.258;6.806;2023-11-19T14:05:01;14.40;43.00
4354;DHT22;11018;51.258;6.806;2023-11-19T14:07:27;14.30;42.80
4354;DHT22;11018;51.258;6.806;2023-11-19T14:09:53;14.20;43.80
4354;DHT22;11018;51.258;6.806;2023-11-19T14:12:19;14.20;44.00
4354;DHT22;11018;51.258;6.806;2023-11-19T14:14:45;14.30;44.10
4354;DHT22;11018;51.258;6.806;2023-11-19T14:17:11;14.20;44.30
4354;DHT22;11018;51.258;6.806;2023-11-19T14:19:37;14.20;44.00
4354;DHT22;11018;51.258;6.806;2023-11-19T14:22:04;14.10;44.20
4354;DHT22;11018;51.258;6.806;2023-11-19T14:24:30;14.20;44.50
4354;DHT22;11018;51.258;6.806;2023-11-19T14:26:55;14.10;43.40
4354;DHT22;11018;51.258;6.806;2023-11-19T14:29:24;14.10;44.70
4354;DHT22;11018;51.258;6.806;2023-11-19T14:31:51;14.00;46.10
4354;DHT22;11018;51.258;6.806;2023-11-19T14:34:17;14.00;46.80
4354;DHT22;11018;51.258;6.806;2023-11-19T14:36:44;13.90;49.50
4354;DHT22;11018;51.258;6.806;2023-11-19T14:39:10;13.80;51.90
4354;DHT22;11018;51.258;6.806;2023-11-19T14:41:36;13.60;54.60
4354;DHT22;11018;51.258;6.806;2023-11-19T14:44:01;13.40;56.70
4354;DHT22;11018;51.258;6.806;2023-11-19T14:46:28;13.40;58.90
4354;DHT22;11018;51.258;6.806;2023-11-19T14:48:54;13.30;59.80
4354;DHT22;11018;51.258;6.806;2023-11-19T14:51:19;13.10;63.00
4354;DHT22;11018;51.258;6.806;2023-11-19T14:53:46;13.10;64.50
4354;DHT22;11018;51.258;6.806;2023-11-19T14:56:11;13.10;65.00
4354;DHT22;11018;51.258;6.806;2023-11-19T14:58:38;13.00;65.60
4354;DHT22;11018;51.258;6.806;2023-11-19T15:01:04;12.90;67.40
4354;DHT22;11018;51.258;6.806;2023-11-19T15:03:30;12.80;70.10
4354;DHT22;11018;51.258;6.806;2023-11-19T15:05:56;12.70;70.70
4354;DHT22;11018;51.258;6.806;2023-11-19T15:08:22;12.70;71.10
4354;DHT22;11018;51.258;6.806;2023-11-19T15:10:47;12.70;72.50
4354;DHT22;11018;51.258;6.806;2023-11-19T15:13:13;12.70;71.10
4354;DHT22;11018;51.258;6.806;2023-11-19T15:15:38;12.70;71.70
4354;DHT22;11018;51.258;6.806;2023-11-19T15:18:04;12.80;71.30
4354;DHT22;11018;51.258;6.806;2023-11-19T15:20:30;12.80;70.30
4354;DHT22;11018;51.258;6.806;2023-11-19T15:22:57;12.80;68.80
4354;DHT22;11018;51.258;6.806;2023-11-19T15:25:22;12.90;66.00
4354;DHT22;11018;51.258;6.806;2023-11-19T15:27:48;12.90;64.50
4354;DHT22;11018;51.258;6.806;2023-11-19T15:30:14;12.80;65.60
4354;DHT22;11018;51.258;6.806;2023-11-19T15:32:41;12.70;67.10
4354;DHT22;11018;51.258;6.806;2023-11-19T15:35:09;12.70;67.10
4354;DHT22;11018;51.258;6.806;2023-11-19T15:37:36;12.70;67.70
4354;DHT22;11018;51.258;6.806;2023-11-19T15:40:03;12.70;67.80
4354;DHT22;11018;51.258;6.806;2023-11-19T15:42:31;12.70;66.40
4354;DHT22;11018;51.258;6.806;2023-11-19T15:44:57;12.60;68.10
4354;DHT22;11018;51.258;6.806;2023-11-19T15:47:22;12.60;66.00
4354;DHT22;11018;51.258;6.806;2023-11-19T15:49:48;12.60;66.00
4354;DHT22;11018;51.258;6.806;2023-11-19T15:52:15;12.60;64.90
4354;DHT22;11018;51.258;6.806;2023-11-19T15:54:41;12.60;65.00
4354;DHT22;11018;51.258;6.806;2023-11-19T15:57:07;12.60;65.80
4354;DHT22;11018;51.258;6.806;2023-11-19T15:59:32;12.60;63.30
4354;DHT22;11018;51.258;6.806;2023-11-19T16:01:58;12.60;62.90
4354;DHT22;11018;51.258;6.806;2023-11-19T16:04:23;12.60;63.70
4354;DHT22;11018;51.258;6.806;2023-11-19T16:06:49;12.70;61.80
4354;DHT22;11018;51.258;6.806;2023-11-19T16:09:15;12.60;62.50